sensor_id;sensor_type;location;lat;lon;timestamp;pressure;altitude;pressure_sealevel;temperature;humidity
24788;BME280;12883;52.662;5.196;2024-03-29T00:00:39;98941.16;;;10.93;100.00
24788;BME280;12883;52.662;5.196;2024-03-29T00:03:06;98922.53;;;10.88;100.00
24788;BME280;12883;52.662;5.196;2024-03-29T00:05:32;98917.19;;;10.83;100.00
24788;BME280;12883;52.662;5.196;2024-03-29T00:07:58;98930.69;;;10.82;100.00
24788;BME280;12883;52.662;5.196;2024-03-29T00:10:23;98917.41;;;10.82;100.00
24788;BME280;12883;52.662;5.196;2024-03-29T00:12:48;98920.00;;;10.77;100.00
24788;BME280;12883;52.662;5.196;2024-03-29T00:15:14;98926.34;;;10.76;100.00
24788;BME280;12883;52.662;5.196;2024-03-29T00:17:39;98863.25;;;10.35;100.00
24788;BME280;12883;52.662;5.196;2024-03-29T00:20:05;98928.94;;;10.71;100.00
24788;BME280;12883;52.662;5.196;2024-03-29T00:22:31;98918.75;;;10.63;100.00
24788;BME280;12883;52.662;5.196;2024-03-29T00:24:56;98925.63;;;10.59;100.00
24788;BME280;12883;52.662;5.196;2024-03-29T00:27:21;98926.78;;;10.68;100.00
24788;BME280;12883;52.662;5.196;2024-03-29T00:29:50;98929.22;;;10.69;100.00
24788;BME280;12883;52.662;5.196;2024-03-29T00:32:18;98924.06;;;10.63;100.00
24788;BME280;12883;52.662;5.196;2024-03-29T00:34:43;98929.13;;;10.64;100.00
24788;BME280;12883;52.662;5.196;2024-03-29T00:37:09;98929.38;;;10.63;100.00
24788;BME280;12883;52.662;5.196;2024-03-29T00:39:34;98934.13;;;10.61;100.00
24788;BME280;12883;52.662;5.196;2024-03-29T00:41:59;98933.59;;;10.59;100.00
24788;BME280;12883;52.662;5.196;2024-03-29T00:44:25;98942.59;;;10.58;100.00
24788;BME280;12883;52.662;5.196;2024-03-29T00:46:50;98951.31;;;10.58;100.00
24788;BME280;12883;52.662;5.196;2024-03-29T00:49:15;98950.78;;;10.56;100.00
24788;BME280;12883;52.662;5.196;2024-03-29T00:51:41;98914.53;;;10.24;100.00
24788;BME280;12883;52.662;5.196;2024-03-29T00:54:06;98955.78;;;10.53;100.00
24788;BME280;12883;52.662;5.196;2024-03-29T00:56:31;98962.66;;;10.54;100.00
24788;BME280;12883;52.662;5.196;2024-03-29T00:58:57;98940.50;;;10.43;100.00
24788;BME280;12883;52.662;5.196;2024-03-29T01:01:22;98949.34;;;10.49;100.00
24788;BME280;12883;52.662;5.196;2024-03-29T01:03:47;98948.22;;;10.45;100.00
24788;BME280;12883;52.662;5.196;2024-03-29T01:06:13;98948.78;;;10.47;100.00
24788;BME280;12883;52.662;5.196;2024-03-29T01:08:38;98954.59;;;10.44;100.00
24788;BME280;12883;52.662;5.196;2024-03-29T01:11:03;98949.75;;;10.41;100.00
24788;BME280;12883;52.662;5.196;2024-03-29T01:13:29;98954.50;;;10.39;100.00
24788;BME280;12883;52.662;5.196;2024-03-29T01:15:54;98964.16;;;10.45;100.00
24788;BME280;12883;52.662;5.196;2024-03-29T01:18:19;98957.25;;;10.44;100.00
24788;BME280;12883;52.662;5.196;2024-03-29T01:20:45;98963.31;;;10.44;100.00
24788;BME280;12883;52.662;5.196;2024-03-29T01:23:10;98954.00;;;10.42;100.00
24788;BME280;12883;52.662;5.196;2024-03-29T01:25:35;98960.44;;;10.46;100.00
24788;BME280;12883;52.662;5.196;2024-03-29T01:28:00;98967.53;;;10.40;100.00
24788;BME280;12883;52.662;5.196;2024-03-29T01:30:26;98964.28;;;10.38;100.00
24788;BME280;12883;52.662;5.196;2024-03-29T01:32:52;98961.31;;;10.35;100.00
24788;BME280;12883;52.662;5.196;2024-03-29T01:35:17;98950.66;;;10.30;100.00
24788;BME280;12883;52.662;5.196;2024-03-29T01:37:43;98958.69;;;10.35;100.00
24788;BME280;12883;52.662;5.196;2024-03-29T01:40:08;98949.53;;;10.26;100.00
24788;BME280;12883;52.662;5.196;2024-03-29T01:42:35;98950.66;;;10.30;100.00
24788;BME280;12883;52.662;5.196;2024-03-29T01:45:01;98946.97;;;10.31;100.00
24788;BME280;12883;52.662;5.196;2024-03-29T01:47:26;98946.38;;;10.29;100.00
24788;BME280;12883;52.662;5.196;2024-03-29T01:49:51;98945.59;;;10.28;100.00
24788;BME280;12883;52.662;5.196;2024-03-29T01:52:17;98951.63;;;10.24;100.00
24788;BME280;12883;52.662;5.196;2024-03-29T01:54:45;98930.13;;;10.20;100.00
24788;BME280;12883;52.662;5.196;2024-03-29T01:57:12;98939.44;;;10.23;100.00
24788;BME280;12883;52.662;5.196;2024-03-29T01:59:40;98936.78;;;10.23;100.00
24788;BME280;12883;52.662;5.196;2024-03-29T02:02:08;98938.06;;;10.20;100.00
24788;BME280;12883;52.662;5.196;2024-03-29T02:04:34;98936.69;;;10.18;100.00
24788;BME280;12883;52.662;5.196;2024-03-29T02:07:00;98936.19;;;10.21;100.00
24788;BME280;12883;52.662;5.196;2024-03-29T02:09:26;98925.28;;;10.17;100.00
24788;BME280;12883;52.662;5.196;2024-03-29T02:11:51;98924.50;;;10.17;100.00
24788;BME280;12883;52.662;5.196;2024-03-29T02:14:16;98928.25;;;10.21;100.00
24788;BME280;12883;52.662;5.196;2024-03-29T02:16:41;98926.66;;;10.20;100.00
24788;BME280;12883;52.662;5.196;2024-03-29T02:19:07;98925.03;;;10.19;100.00
24788;BME280;12883;52.662;5.196;2024-03-29T02:21:37;98917.41;;;10.22;100.00
24788;BME280;12883;52.662;5.196;2024-03-29T02:24:07;98901.97;;;10.19;100.00
24788;BME280;12883;52.662;5.196;2024-03-29T02:26:33;98915.19;;;10.14;100.00
24788;BME280;12883;52.662;5.196;2024-03-29T02:29:04;98906.97;;;10.16;100.00
24788;BME280;12883;52.662;5.196;2024-03-29T02:31:30;98922.63;;;10.17;100.00
24788;BME280;12883;52.662;5.196;2024-03-29T02:33:55;98930.81;;;10.16;100.00
24788;BME280;12883;52.662;5.196;2024-03-29T02:36:21;98930.56;;;10.01;100.00
24788;BME280;12883;52.662;5.196;2024-03-29T02:38:46;98942.97;;;10.12;100.00
24788;BME280;12883;52.662;5.196;2024-03-29T02:41:11;98938.13;;;10.09;100.00
24788;BME280;12883;52.662;5.196;2024-03-29T02:43:37;98939.75;;;10.10;100.00
24788;BME280;12883;52.662;5.196;2024-03-29T02:46:02;98947.13;;;10.08;100.00
24788;BME280;12883;52.662;5.196;2024-03-29T02:48:27;98934.59;;;10.03;100.00
24788;BME280;12883;52.662;5.196;2024-03-29T02:50:53;98938.63;;;10.06;100.00
24788;BME280;12883;52.662;5.196;2024-03-29T02:53:18;98930.91;;;10.04;100.00
24788;BME280;12883;52.662;5.196;2024-03-29T02:55:43;98939.66;;;10.05;100.00
24788;BME280;12883;52.662;5.196;2024-03-29T02:58:08;98936.22;;;10.04;100.00
24788;BME280;12883;52.662;5.196;2024-03-29T03:00:34;98949.72;;;10.03;100.00
24788;BME280;12883;52.662;5.196;2024-03-29T03:02:59;98955.81;;;10.03;100.00
24788;BME280;12883;52.662;5.196;2024-03-29T03:05:24;98948.56;;;9.99;100.00
24788;BME280;12883;52.662;5.196;2024-03-29T03:07:50;98950.72;;;10.02;100.00
24788;BME280;12883;52.662;5.196;2024-03-29T03:10:34;98961.91;;;10.04;100.00
24788;BME280;12883;52.662;5.196;2024-03-29T03:13:17;98959.81;;;10.06;100.00
24788;BME280;12883;52.662;5.196;2024-03-29T03:15:43;98959.00;;;10.05;100.00
24788;BME280;12883;52.662;5.196;2024-03-29T03:18:08;98962.25;;;10.07;100.00
24788;BME280;12883;52.662;5.196;2024-03-29T03:20:33;98959.91;;;10.11;100.00
24788;BME280;12883;52.662;5.196;2024-03-29T03:22:59;98966.25;;;10.10;100.00
24788;BME280;12883;52.662;5.196;2024-03-29T03:25:26;98928.16;;;9.83;100.00
24788;BME280;12883;52.662;5.196;2024-03-29T03:27:52;98974.22;;;10.10;100.00
24788;BME280;12883;52.662;5.196;2024-03-29T03:30:17;98969.47;;;10.12;100.00
24788;BME280;12883;52.662;5.196;2024-03-29T03:32:42;98957.25;;;10.11;100.00
24788;BME280;12883;52.662;5.196;2024-03-29T03:35:08;98949.47;;;10.04;100.00
24788;BME280;12883;52.662;5.196;2024-03-29T03:37:33;98959.00;;;10.05;100.00
24788;BME280;12883;52.662;5.196;2024-03-29T03:39:58;98964.56;;;10.04;100.00
24788;BME280;12883;52.662;5.196;2024-03-29T03:42:24;98969.88;;;10.04;100.00
24788;BME280;12883;52.662;5.196;2024-03-29T03:44:49;98978.25;;;10.01;100.00
24788;BME280;12883;52.662;5.196;2024-03-29T03:47:14;98968.94;;;9.98;100.00
24788;BME280;12883;52.662;5.196;2024-03-29T03:49:40;98987.81;;;10.02;100.00
24788;BME280;12883;52.662;5.196;2024-03-29T03:52:05;98979.66;;;10.03;100.00
24788;BME280;12883;52.662;5.196;2024-03-29T03:54:30;98982.50;;;10.02;100.00
24788;BME280;12883;52.662;5.196;2024-03-29T03:56:56;98980.22;;;10.05;100.00
24788;BME280;12883;52.662;5.196;2024-03-29T03:59:21;98993.78;;;10.09;100.00
24788;BME280;12883;52.662;5.196;2024-03-29T04:01:46;98989.06;;;10.11;100.00
24788;BME280;12883;52.662;5.196;2024-03-29T04:04:12;98996.53;;;10.14;100.00
24788;BME280;12883;52.662;5.196;2024-03-29T04:06:37;98985.44;;;10.17;100.00
24788;BME280;12883;52.662;5.196;2024-03-29T04:09:03;99000.63;;;10.21;100.00
24788;BME280;12883;52.662;5.196;2024-03-29T04:11:28;98984.13;;;10.19;100.00
24788;BME280;12883;52.662;5.196;2024-03-29T04:13:54;99011.06;;;10.28;100.00
24788;BME280;12883;52.662;5.196;2024-03-29T04:16:19;99001.28;;;10.28;100.00
24788;BME280;12883;52.662;5.196;2024-03-29T04:18:45;99007.28;;;10.24;100.00
24788;BME280;12883;52.662;5.196;2024-03-29T04:21:10;99002.22;;;10.22;100.00
24788;BME280;12883;52.662;5.196;2024-03-29T04:23:36;99011.22;;;10.21;100.00
24788;BME280;12883;52.662;5.196;2024-03-29T04:26:02;98992.81;;;10.15;100.00
24788;BME280;12883;52.662;5.196;2024-03-29T04:28:27;98989.22;;;10.21;100.00
24788;BME280;12883;52.662;5.196;2024-03-29T04:30:54;98962.53;;;9.94;100.00
24788;BME280;12883;52.662;5.196;2024-03-29T04:33:19;99005.13;;;10.21;100.00
24788;BME280;12883;52.662;5.196;2024-03-29T04:38:24;99000.31;;;10.18;100.00
24788;BME280;12883;52.662;5.196;2024-03-29T04:40:51;98992.91;;;10.20;100.00
24788;BME280;12883;52.662;5.196;2024-03-29T04:43:17;98992.25;;;10.13;100.00
24788;BME280;12883;52.662;5.196;2024-03-29T04:45:45;99006.34;;;10.13;100.00
24788;BME280;12883;52.662;5.196;2024-03-29T04:48:11;98972.78;;;9.91;100.00
24788;BME280;12883;52.662;5.196;2024-03-29T04:50:37;99006.06;;;10.15;100.00
24788;BME280;12883;52.662;5.196;2024-03-29T04:53:02;99004.47;;;10.14;100.00
24788;BME280;12883;52.662;5.196;2024-03-29T04:55:27;99012.41;;;10.14;100.00
24788;BME280;12883;52.662;5.196;2024-03-29T04:57:53;98981.38;;;9.98;100.00
24788;BME280;12883;52.662;5.196;2024-03-29T05:00:18;98966.34;;;9.87;100.00
24788;BME280;12883;52.662;5.196;2024-03-29T05:02:44;99013.97;;;10.10;100.00
24788;BME280;12883;52.662;5.196;2024-03-29T05:05:09;99014.28;;;10.13;100.00
24788;BME280;12883;52.662;5.196;2024-03-29T05:07:34;99012.19;;;10.15;100.00
24788;BME280;12883;52.662;5.196;2024-03-29T05:10:00;99014.59;;;10.17;100.00
24788;BME280;12883;52.662;5.196;2024-03-29T05:12:25;98974.41;;;9.92;100.00
24788;BME280;12883;52.662;5.196;2024-03-29T05:14:50;99000.72;;;10.10;100.00
24788;BME280;12883;52.662;5.196;2024-03-29T05:17:16;99020.38;;;10.14;100.00
24788;BME280;12883;52.662;5.196;2024-03-29T05:19:42;99019.66;;;10.18;100.00
24788;BME280;12883;52.662;5.196;2024-03-29T05:22:08;99018.28;;;10.16;100.00
24788;BME280;12883;52.662;5.196;2024-03-29T05:24:33;99003.69;;;10.13;100.00
24788;BME280;12883;52.662;5.196;2024-03-29T05:26:59;99014.19;;;10.08;100.00
24788;BME280;12883;52.662;5.196;2024-03-29T05:29:24;99025.66;;;10.14;100.00
24788;BME280;12883;52.662;5.196;2024-03-29T05:31:49;99024.63;;;10.15;100.00
24788;BME280;12883;52.662;5.196;2024-03-29T05:34:15;99031.78;;;10.14;100.00
24788;BME280;12883;52.662;5.196;2024-03-29T05:36:40;99021.97;;;10.15;100.00
24788;BME280;12883;52.662;5.196;2024-03-29T05:39:05;98976.16;;;9.86;100.00
24788;BME280;12883;52.662;5.196;2024-03-29T05:41:31;99005.69;;;9.95;100.00
24788;BME280;12883;52.662;5.196;2024-03-29T05:43:57;99030.41;;;10.12;100.00
24788;BME280;12883;52.662;5.196;2024-03-29T05:46:23;99034.13;;;10.11;100.00
24788;BME280;12883;52.662;5.196;2024-03-29T05:48:48;99039.66;;;10.09;100.00
24788;BME280;12883;52.662;5.196;2024-03-29T05:51:13;99039.41;;;10.11;100.00
24788;BME280;12883;52.662;5.196;2024-03-29T05:53:39;99040.47;;;10.10;100.00
24788;BME280;12883;52.662;5.196;2024-03-29T05:56:05;99048.16;;;10.11;100.00
24788;BME280;12883;52.662;5.196;2024-03-29T05:58:33;99034.28;;;9.93;100.00
24788;BME280;12883;52.662;5.196;2024-03-29T06:00:58;99058.28;;;10.14;100.00
24788;BME280;12883;52.662;5.196;2024-03-29T06:03:23;99053.31;;;10.18;100.00
24788;BME280;12883;52.662;5.196;2024-03-29T06:05:49;99057.56;;;10.19;100.00
24788;BME280;12883;52.662;5.196;2024-03-29T06:08:14;99061.34;;;10.23;100.00
24788;BME280;12883;52.662;5.196;2024-03-29T06:10:39;99061.34;;;10.23;100.00
24788;BME280;12883;52.662;5.196;2024-03-29T06:13:05;99064.25;;;10.21;100.00
24788;BME280;12883;52.662;5.196;2024-03-29T06:15:35;99068.72;;;10.21;100.00
24788;BME280;12883;52.662;5.196;2024-03-29T06:18:19;99074.25;;;10.19;100.00
24788;BME280;12883;52.662;5.196;2024-03-29T06:20:46;99028.03;;;9.99;100.00
24788;BME280;12883;52.662;5.196;2024-03-29T06:23:11;99078.88;;;10.24;100.00
24788;BME280;12883;52.662;5.196;2024-03-29T06:25:37;99078.53;;;10.20;100.00
24788;BME280;12883;52.662;5.196;2024-03-29T06:28:03;99079.00;;;10.17;100.00
24788;BME280;12883;52.662;5.196;2024-03-29T06:30:29;99090.88;;;10.15;100.00
24788;BME280;12883;52.662;5.196;2024-03-29T06:32:54;99077.94;;;10.18;100.00
24788;BME280;12883;52.662;5.196;2024-03-29T06:35:20;99080.78;;;10.12;100.00
24788;BME280;12883;52.662;5.196;2024-03-29T06:37:47;99085.91;;;10.18;100.00
24788;BME280;12883;52.662;5.196;2024-03-29T06:40:12;99084.06;;;10.19;100.00
24788;BME280;12883;52.662;5.196;2024-03-29T06:42:38;99097.78;;;10.16;100.00
24788;BME280;12883;52.662;5.196;2024-03-29T06:45:04;99093.31;;;10.16;100.00
24788;BME280;12883;52.662;5.196;2024-03-29T06:47:31;99089.28;;;10.14;100.00
24788;BME280;12883;52.662;5.196;2024-03-29T06:49:56;99094.03;;;10.12;100.00
24788;BME280;12883;52.662;5.196;2024-03-29T06:52:22;99083.97;;;10.14;100.00
24788;BME280;12883;52.662;5.196;2024-03-29T06:54:47;99089.50;;;10.12;100.00
24788;BME280;12883;52.662;5.196;2024-03-29T06:57:12;99088.22;;;10.15;100.00
24788;BME280;12883;52.662;5.196;2024-03-29T06:59:41;99100.53;;;10.21;100.00
24788;BME280;12883;52.662;5.196;2024-03-29T07:02:06;99091.84;;;10.25;100.00
24788;BME280;12883;52.662;5.196;2024-03-29T07:04:31;99101.19;;;10.28;100.00
24788;BME280;12883;52.662;5.196;2024-03-29T07:06:58;99092.78;;;10.31;100.00
24788;BME280;12883;52.662;5.196;2024-03-29T07:09:24;99082.00;;;10.37;100.00
24788;BME280;12883;52.662;5.196;2024-03-29T07:11:51;99097.19;;;10.42;100.00
24788;BME280;12883;52.662;5.196;2024-03-29T07:14:18;99085.78;;;10.41;100.00
24788;BME280;12883;52.662;5.196;2024-03-29T07:16:44;99092.53;;;10.49;100.00
24788;BME280;12883;52.662;5.196;2024-03-29T07:19:10;99098.97;;;10.53;100.00
24788;BME280;12883;52.662;5.196;2024-03-29T07:21:41;99094.63;;;10.47;100.00
24788;BME280;12883;52.662;5.196;2024-03-29T07:24:06;99095.13;;;10.44;100.00
24788;BME280;12883;52.662;5.196;2024-03-29T07:26:32;99093.25;;;10.61;100.00
24788;BME280;12883;52.662;5.196;2024-03-29T07:28:58;99089.72;;;10.72;100.00
24788;BME280;12883;52.662;5.196;2024-03-29T07:31:23;99110.69;;;10.73;100.00
24788;BME280;12883;52.662;5.196;2024-03-29T07:33:48;99106.75;;;10.76;100.00
24788;BME280;12883;52.662;5.196;2024-03-29T07:36:14;99123.00;;;10.79;100.00
24788;BME280;12883;52.662;5.196;2024-03-29T07:38:41;99120.19;;;10.86;100.00
24788;BME280;12883;52.662;5.196;2024-03-29T07:41:07;99115.84;;;10.80;100.00
24788;BME280;12883;52.662;5.196;2024-03-29T07:43:39;99116.63;;;10.80;100.00
24788;BME280;12883;52.662;5.196;2024-03-29T07:46:05;99125.81;;;10.89;100.00
24788;BME280;12883;52.662;5.196;2024-03-29T07:48:33;99133.91;;;10.99;100.00
24788;BME280;12883;52.662;5.196;2024-03-29T07:50:59;99125.16;;;10.99;100.00
24788;BME280;12883;52.662;5.196;2024-03-29T07:53:24;99138.50;;;11.04;100.00
24788;BME280;12883;52.662;5.196;2024-03-29T07:55:49;99124.19;;;11.05;100.00
24788;BME280;12883;52.662;5.196;2024-03-29T07:58:15;99129.56;;;11.10;100.00
24788;BME280;12883;52.662;5.196;2024-03-29T08:00:42;99125.78;;;11.06;100.00
24788;BME280;12883;52.662;5.196;2024-03-29T08:03:07;99141.25;;;11.09;100.00
24788;BME280;12883;52.662;5.196;2024-03-29T08:05:33;99109.72;;;10.96;100.00
24788;BME280;12883;52.662;5.196;2024-03-29T08:07:59;99141.44;;;11.24;100.00
24788;BME280;12883;52.662;5.196;2024-03-29T08:10:24;99106.16;;;11.23;100.00
24788;BME280;12883;52.662;5.196;2024-03-29T08:12:49;99128.56;;;11.32;100.00
24788;BME280;12883;52.662;5.196;2024-03-29T08:15:15;99119.13;;;11.41;100.00
24788;BME280;12883;52.662;5.196;2024-03-29T08:17:43;99134.31;;;11.46;100.00
24788;BME280;12883;52.662;5.196;2024-03-29T08:20:08;99154.47;;;11.58;100.00
24788;BME280;12883;52.662;5.196;2024-03-29T08:22:37;99155.44;;;11.57;100.00
24788;BME280;12883;52.662;5.196;2024-03-29T08:25:02;99148.63;;;11.61;100.00
24788;BME280;12883;52.662;5.196;2024-03-29T08:27:28;99154.19;;;11.60;100.00
24788;BME280;12883;52.662;5.196;2024-03-29T08:29:53;99157.44;;;11.62;100.00
24788;BME280;12883;52.662;5.196;2024-03-29T08:32:19;99143.88;;;11.47;100.00
24788;BME280;12883;52.662;5.196;2024-03-29T08:34:44;99169.59;;;11.79;100.00
24788;BME280;12883;52.662;5.196;2024-03-29T08:37:10;99161.66;;;11.84;100.00
24788;BME280;12883;52.662;5.196;2024-03-29T08:39:35;99158.28;;;11.89;100.00
24788;BME280;12883;52.662;5.196;2024-03-29T08:42:03;99132.81;;;11.93;100.00
24788;BME280;12883;52.662;5.196;2024-03-29T08:44:33;99152.47;;;11.92;100.00
24788;BME280;12883;52.662;5.196;2024-03-29T08:46:59;99159.53;;;11.81;100.00
24788;BME280;12883;52.662;5.196;2024-03-29T08:49:27;99181.09;;;11.85;100.00
24788;BME280;12883;52.662;5.196;2024-03-29T08:51:52;99169.72;;;11.89;100.00
24788;BME280;12883;52.662;5.196;2024-03-29T08:54:17;99181.34;;;11.83;100.00
24788;BME280;12883;52.662;5.196;2024-03-29T08:56:43;99181.16;;;11.90;100.00
24788;BME280;12883;52.662;5.196;2024-03-29T08:59:08;99180.72;;;11.98;100.00
24788;BME280;12883;52.662;5.196;2024-03-29T09:01:41;99146.09;;;11.71;100.00
24788;BME280;12883;52.662;5.196;2024-03-29T09:04:07;99182.84;;;11.96;100.00
24788;BME280;12883;52.662;5.196;2024-03-29T09:06:36;99172.91;;;11.91;100.00
24788;BME280;12883;52.662;5.196;2024-03-29T09:09:02;99190.31;;;11.99;100.00
24788;BME280;12883;52.662;5.196;2024-03-29T09:11:28;99197.84;;;12.07;100.00
24788;BME280;12883;52.662;5.196;2024-03-29T09:13:53;99195.50;;;12.10;100.00
24788;BME280;12883;52.662;5.196;2024-03-29T09:16:21;99202.63;;;12.31;100.00
24788;BME280;12883;52.662;5.196;2024-03-29T09:18:46;99226.88;;;12.35;100.00
24788;BME280;12883;52.662;5.196;2024-03-29T09:21:12;99151.13;;;11.89;100.00
24788;BME280;12883;52.662;5.196;2024-03-29T09:23:37;99220.47;;;12.31;100.00
24788;BME280;12883;52.662;5.196;2024-03-29T09:26:06;99200.28;;;12.35;100.00
24788;BME280;12883;52.662;5.196;2024-03-29T09:28:32;99203.00;;;12.40;100.00
24788;BME280;12883;52.662;5.196;2024-03-29T09:31:00;99226.41;;;12.38;100.00
24788;BME280;12883;52.662;5.196;2024-03-29T09:33:26;99208.13;;;12.46;100.00
24788;BME280;12883;52.662;5.196;2024-03-29T09:35:51;99232.03;;;12.41;100.00
24788;BME280;12883;52.662;5.196;2024-03-29T09:38:18;99223.28;;;12.46;100.00
24788;BME280;12883;52.662;5.196;2024-03-29T09:40:44;99211.44;;;12.58;100.00
24788;BME280;12883;52.662;5.196;2024-03-29T09:43:10;99209.84;;;12.57;100.00
24788;BME280;12883;52.662;5.196;2024-03-29T09:45:37;99211.22;;;12.65;100.00
24788;BME280;12883;52.662;5.196;2024-03-29T09:48:07;99224.91;;;12.73;100.00
24788;BME280;12883;52.662;5.196;2024-03-29T09:50:37;99206.34;;;12.52;100.00
24788;BME280;12883;52.662;5.196;2024-03-29T09:53:06;99169.47;;;12.39;100.00
24788;BME280;12883;52.662;5.196;2024-03-29T09:55:33;99231.53;;;12.71;100.00
24788;BME280;12883;52.662;5.196;2024-03-29T09:57:59;99229.31;;;12.63;100.00
24788;BME280;12883;52.662;5.196;2024-03-29T10:00:27;99221.38;;;12.68;100.00
24788;BME280;12883;52.662;5.196;2024-03-29T10:02:55;99177.94;;;12.36;100.00
24788;BME280;12883;52.662;5.196;2024-03-29T10:05:22;99227.78;;;12.72;100.00
24788;BME280;12883;52.662;5.196;2024-03-29T10:07:47;99217.88;;;12.62;100.00
24788;BME280;12883;52.662;5.196;2024-03-29T10:10:13;99222.94;;;12.64;100.00
24788;BME280;12883;52.662;5.196;2024-03-29T10:12:39;99235.75;;;12.67;100.00
24788;BME280;12883;52.662;5.196;2024-03-29T10:15:05;99235.25;;;12.70;100.00
24788;BME280;12883;52.662;5.196;2024-03-29T10:17:34;99237.91;;;12.70;100.00
24788;BME280;12883;52.662;5.196;2024-03-29T10:20:03;99235.47;;;12.68;100.00
24788;BME280;12883;52.662;5.196;2024-03-29T10:22:40;99239.19;;;12.67;100.00
24788;BME280;12883;52.662;5.196;2024-03-29T10:25:05;99236.84;;;12.71;100.00
24788;BME280;12883;52.662;5.196;2024-03-29T10:27:30;99230.44;;;12.67;100.00
24788;BME280;12883;52.662;5.196;2024-03-29T10:29:56;99219.88;;;12.77;100.00
24788;BME280;12883;52.662;5.196;2024-03-29T10:32:22;99232.34;;;12.71;100.00
24788;BME280;12883;52.662;5.196;2024-03-29T10:34:48;99228.09;;;12.75;100.00
24788;BME280;12883;52.662;5.196;2024-03-29T10:37:14;99236.97;;;12.81;100.00
24788;BME280;12883;52.662;5.196;2024-03-29T10:39:44;99236.41;;;12.79;100.00
24788;BME280;12883;52.662;5.196;2024-03-29T10:42:11;99234.34;;;12.86;100.00
24788;BME280;12883;52.662;5.196;2024-03-29T10:44:38;99235.34;;;12.80;100.00
24788;BME280;12883;52.662;5.196;2024-03-29T10:47:05;99237.34;;;12.94;100.00
24788;BME280;12883;52.662;5.196;2024-03-29T10:49:32;99215.59;;;12.76;100.00
24788;BME280;12883;52.662;5.196;2024-03-29T10:51:59;99247.31;;;13.04;100.00
24788;BME280;12883;52.662;5.196;2024-03-29T10:54:25;99246.59;;;13.13;100.00
24788;BME280;12883;52.662;5.196;2024-03-29T10:56:59;99238.31;;;13.10;100.00
24788;BME280;12883;52.662;5.196;2024-03-29T10:59:41;99277.00;;;13.17;100.00
24788;BME280;12883;52.662;5.196;2024-03-29T11:02:34;99258.00;;;13.09;100.00
24788;BME280;12883;52.662;5.196;2024-03-29T11:05:02;99251.09;;;13.08;100.00
24788;BME280;12883;52.662;5.196;2024-03-29T11:07:34;99235.56;;;13.00;100.00
24788;BME280;12883;52.662;5.196;2024-03-29T11:10:05;99249.00;;;13.15;100.00
24788;BME280;12883;52.662;5.196;2024-03-29T11:12:41;99251.56;;;13.31;100.00
24788;BME280;12883;52.662;5.196;2024-03-29T11:15:16;99255.28;;;13.35;100.00
24788;BME280;12883;52.662;5.196;2024-03-29T11:17:44;99274.88;;;13.51;100.00
24788;BME280;12883;52.662;5.196;2024-03-29T11:20:10;99279.38;;;13.50;100.00
24788;BME280;12883;52.662;5.196;2024-03-29T11:22:36;99282.50;;;13.74;100.00
24788;BME280;12883;52.662;5.196;2024-03-29T11:25:02;99275.59;;;13.78;100.00
24788;BME280;12883;52.662;5.196;2024-03-29T11:27:29;99234.94;;;13.56;100.00
24788;BME280;12883;52.662;5.196;2024-03-29T11:29:54;99263.56;;;13.75;100.00
24788;BME280;12883;52.662;5.196;2024-03-29T11:32:36;99260.13;;;13.80;100.00
24788;BME280;12883;52.662;5.196;2024-03-29T11:35:04;99262.00;;;13.79;100.00
24788;BME280;12883;52.662;5.196;2024-03-29T11:37:30;99261.28;;;13.94;100.00
24788;BME280;12883;52.662;5.196;2024-03-29T11:39:59;99266.63;;;13.94;100.00
24788;BME280;12883;52.662;5.196;2024-03-29T11:42:37;99270.09;;;13.94;100.00
24788;BME280;12883;52.662;5.196;2024-03-29T11:45:02;99264.97;;;13.88;100.00
24788;BME280;12883;52.662;5.196;2024-03-29T11:47:28;99276.50;;;13.93;100.00
24788;BME280;12883;52.662;5.196;2024-03-29T11:49:58;99270.31;;;13.88;100.00
24788;BME280;12883;52.662;5.196;2024-03-29T11:52:26;99273.34;;;14.01;100.00
24788;BME280;12883;52.662;5.196;2024-03-29T11:54:53;99284.25;;;14.00;100.00
24788;BME280;12883;52.662;5.196;2024-03-29T11:57:19;99273.34;;;14.01;100.00
24788;BME280;12883;52.662;5.196;2024-03-29T11:59:45;99274.72;;;14.14;100.00
24788;BME280;12883;52.662;5.196;2024-03-29T12:02:12;99262.91;;;14.00;100.00
24788;BME280;12883;52.662;5.196;2024-03-29T12:04:40;99291.84;;;14.18;100.00
24788;BME280;12883;52.662;5.196;2024-03-29T12:07:06;99289.66;;;14.15;100.00
24788;BME280;12883;52.662;5.196;2024-03-29T12:09:31;99284.88;;;14.17;100.00
24788;BME280;12883;52.662;5.196;2024-03-29T12:11:57;99300.88;;;14.17;100.00
24788;BME280;12883;52.662;5.196;2024-03-29T12:14:25;99220.63;;;13.72;100.00
24788;BME280;12883;52.662;5.196;2024-03-29T12:16:52;99295.09;;;14.30;100.00
24788;BME280;12883;52.662;5.196;2024-03-29T12:19:25;99294.06;;;14.36;100.00
24788;BME280;12883;52.662;5.196;2024-03-29T12:21:52;99288.50;;;14.42;100.00
24788;BME280;12883;52.662;5.196;2024-03-29T12:24:18;99286.59;;;14.33;100.00
24788;BME280;12883;52.662;5.196;2024-03-29T12:26:43;99306.38;;;14.42;100.00
24788;BME280;12883;52.662;5.196;2024-03-29T12:29:09;99306.41;;;14.47;100.00
24788;BME280;12883;52.662;5.196;2024-03-29T12:31:34;99279.16;;;14.40;100.00
24788;BME280;12883;52.662;5.196;2024-03-29T12:34:00;99285.34;;;14.60;100.00
24788;BME280;12883;52.662;5.196;2024-03-29T12:36:25;99277.06;;;14.52;100.00
24788;BME280;12883;52.662;5.196;2024-03-29T12:38:55;99297.63;;;14.61;100.00
24788;BME280;12883;52.662;5.196;2024-03-29T12:41:23;99294.75;;;14.73;100.00
24788;BME280;12883;52.662;5.196;2024-03-29T12:43:50;99303.28;;;14.70;100.00
24788;BME280;12883;52.662;5.196;2024-03-29T12:46:17;99298.19;;;14.68;100.00
24788;BME280;12883;52.662;5.196;2024-03-29T12:48:43;99308.88;;;14.68;100.00